Search METAR Data

METAR Data for ENSD:

ENSD 211950Z 31005KT 270V360 9999 FEW070 SCT093 BKN170 15/09 Q1011 RMK WIND RWY 26 VRB02KT WIND 1140FT 28002KT